South Reno (Wolf Run), Nevada Weather observations

Data are for observation ending at time listed.
 Day   Time    Ave.   Ave.  Ave.  Vector   Max.   Stn.    Total    Solar   Ave.  
  of    of     Air    Rel.  Wind   Wind    Wind   Baro.  Precip.   Rad.    Soil  
Year   Day     Temp.  Hum.  Speed  Dir.    Gust   Pres.                    Temp. 
2026   (PST)    F      %     mph   deg.    mph     mb.     in.     W/m2     F   
------------------------------------------------------------------------------
 125   13:30   64.9    42    2.1     0      7.1  99999.0    0.00      18    59.7
 125   13:40   67.0    39    1.6    61      6.9  99999.0    0.00      20    59.9
 125   13:50   66.5    36    3.7    59      7.1  99999.0    0.00      18    60.2
 125   14:00   65.4    38    1.9    92      6.5  99999.0    0.00      17    60.6
 125   14:10   68.5    38    1.2   119      4.3  99999.0    0.00      19    60.7
 125   14:20   68.8    35    2.4    87      6.4  99999.0    0.00      19    61.0
 125   14:30   68.7    35    1.5    46      4.3  99999.0    0.00      20    61.2
 125   14:40   69.4    33    1.8    84      6.6  99999.0    0.00      20    61.5
 125   14:50   69.9    32    1.1   109      5.6  99999.0    0.00      20    61.8
 125   15:00   71.0    31    1.2    19      5.8  99999.0    0.00      20    62.0
 125   15:10   71.5    30    0.6   109      3.9  99999.0    0.00      18    62.3
 125   15:20   70.8    30    1.9   351      8.3  99999.0    0.00      17    62.5
 125   15:30   68.7    30    2.8   342      7.9  99999.0    0.00      15    62.7
 125   15:40   69.2    31    2.1   291      6.9  99999.0    0.00      18    62.9
 125   15:50   69.4    32    2.9   162      6.1  99999.0    0.00      16    63.1
 125   16:00   71.9    30    1.5   143      4.5  99999.0    0.00      18    63.2
 125   16:10   71.6    28    1.0    44      5.3  99999.0    0.00      16    63.4
 125   16:20   69.9    31    0.4     7      5.4  99999.0    0.00      14    63.6
 125   16:30   68.8    30    1.9     5      5.6  99999.0    0.00      15    63.7
 125   16:40   70.6    28    2.5     4      6.5  99999.0    0.00      17    63.8
 125   16:50   70.8    27    3.1     6      7.3  99999.0    0.00      16    64.0
 125   17:00   70.8    28    2.3    18      5.8  99999.0    0.00      16    64.1
 125   17:10   70.0    29    2.7   337      7.5  99999.0    0.00      13    64.2
 125   17:20   69.1    29    2.9   347      7.6  99999.0    0.00      12    64.3
 125   17:30   69.4    30    2.2     1      7.2  99999.0    0.00      12    64.4
 125   17:40   69.8    28    2.9   341      8.9  99999.0    0.00      11    64.5
 125   17:50   70.0    29    1.2   322      5.4  99999.0    0.00      11    64.5
 125   18:00   70.5    29    0.7   331      4.1  99999.0    0.00      10    64.6
 125   18:10   68.2    32    0.8   334      5.3  99999.0    0.00      11    64.6
 125   18:20   65.7    38    0.8   243      4.9  99999.0    0.00       9    64.7
 125   18:30   63.1    42    6.5   238     10.5  99999.0    0.00       8    64.7
 125   18:40   61.9    44    6.3   232     11.1  99999.0    0.00       7    64.7
 125   18:50   61.3    46    6.1   235      9.1  99999.0    0.00       6    64.7
 125   19:00   60.5    48    6.0   238     10.8  99999.0    0.00       4    64.7
 125   19:10   60.6    48    6.7   237     11.6  99999.0    0.00       2    64.6
 125   19:20   60.6    48    1.9   206      4.5  99999.0    0.00       1    64.6
 125   19:30   59.6    50    2.4   230      8.3  99999.0    0.00       0    64.5
 125   19:40   60.0    48    2.6   238      7.1  99999.0    0.00       0    64.5
 125   19:50   59.0    52    3.9   243      7.7  99999.0    0.00       0    64.4
 125   20:00   58.5    53    3.8   242      8.6  99999.0    0.00       0    64.3
 125   20:10   58.9    52    1.5   190      4.8  99999.0    0.00       0    64.3
 125   20:20   58.8    53    1.9   183      3.8  99999.0    0.00       0    64.2
 125   20:30   58.3    53    1.1   249      6.3  99999.0    0.00       0    64.1
 125   20:40   59.1    51    0.9   239      4.6  99999.0    0.00       0    64.0
 125   20:50   58.4    53    2.1   235      6.4  99999.0    0.00       0    64.0
 125   21:00   58.0    53    3.9   238      6.6  99999.0    0.00       0    63.9
 125   21:10   58.2    53    3.0   239      6.1  99999.0    0.00       0    63.8
 125   21:20   57.3    56    2.9   242      6.6  99999.0    0.00       0    63.7
 125   21:30   57.4    55    3.1   245      6.1  99999.0    0.00       0    63.6
 125   21:40   57.3    55    5.6   243      8.8  99999.0    0.00       0    63.6
 125   21:50   57.1    56    5.7   242      8.5  99999.0    0.00       0    63.5
 125   22:00   57.1    56    5.3   241      8.0  99999.0    0.00       0    63.4
 125   22:10   56.4    57    5.3   243      6.9  99999.0    0.00       0    63.3
 125   22:20   55.9    58    4.9   242      7.1  99999.0    0.00       0    63.3
 125   22:30   55.4    58    5.8   243      9.6  99999.0    0.00       0    63.2
 125   22:40   55.9    58    6.3   243      9.9  99999.0    0.00       0    63.1
 125   22:50   55.3    60    5.8   243     10.1  99999.0    0.00       0    63.0
 125   23:00   55.0    60    5.3   238      8.1  99999.0    0.00       0    63.0
 125   23:10   55.4    58    5.5   239      8.7  99999.0    0.00       0    62.9
 125   23:20   55.6    58    5.4   239      8.0  99999.0    0.00       0    62.8
 125   23:30   55.1    59    5.2   242      8.6  99999.0    0.00       0    62.7
 125   23:40   54.3    61    5.0   241      6.8  99999.0    0.00       0    62.7
 125   23:50   54.3    61    5.1   242      7.7  99999.0    0.00       0    62.6
 126    0:00   54.0    62    5.0   242      7.5  99999.0    0.00       0    62.5
 126    0:10   53.9    62    3.3   245      6.9  99999.0    0.00       0    62.4
 126    0:20   53.8    62    4.0   243      6.9  99999.0    0.00       0    62.3
 126    0:30   53.6    62    4.2   241      6.6  99999.0    0.00       0    62.3
 126    0:40   53.8    62    2.4   241      6.2  99999.0    0.00       0    62.2
 126    0:50   54.1    61    2.2   231      5.1  99999.0    0.00       0    62.1
 126    1:00   54.3    60    2.0   224      4.2  99999.0    0.00       0    62.0
 126    1:10   53.6    61    2.1   238      4.2  99999.0    0.00       0    62.0
 126    1:20   52.5    64    2.3   242      5.2  99999.0    0.00       0    61.9
 126    1:30   52.1    64    2.9   240      5.8  99999.0    0.00       0    61.8
 126    1:40   52.0    65    1.3   244      5.4  99999.0    0.00       0    61.8
 126    1:50   51.6    65    1.8   244      4.9  99999.0    0.00       0    61.7
 126    2:00   50.9    66    1.7   241      3.9  99999.0    0.00       0    61.6
 126    2:10   50.6    67    0.9   243      3.2  99999.0    0.00       0    61.6
 126    2:20   50.4    67    1.6   239      3.8  99999.0    0.00       0    61.5
 126    2:30   50.3    67    1.1   243      3.1  99999.0    0.00       0    61.4
 126    2:40   49.8    68    1.1   239      3.2  99999.0    0.00       0    61.4
 126    2:50   49.5    68    0.1   253      1.6  99999.0    0.00       0    61.3
 126    3:00   49.2    70    0.4   244      1.7  99999.0    0.00       0    61.2
 126    3:10   49.3    70    0.3   248      1.4  99999.0    0.00       0    61.1
 126    3:20   49.4    71    0.4   243      1.7  99999.0    0.00       0    61.1
 126    3:30   49.6    70    0.2   244      1.5  99999.0    0.00       0    61.0
 126    3:40   49.3    70    0.0   248      1.1  99999.0    0.00       0    60.9
 126    3:50   48.9    72    0.1   247      1.6  99999.0    0.00       0    60.9
 126    4:00   48.5    72    0.3   250      1.3  99999.0    0.00       0    60.8
 126    4:10   48.3    72    0.0   248      0.9  99999.0    0.00       0    60.8
 126    4:20   47.5    74    1.4   244      3.9  99999.0    0.00       0    60.7
 126    4:30   46.9    75    3.2   243      4.7  99999.0    0.00       0    60.6
 126    4:40   47.1    75    2.0   243      4.3  99999.0    0.00       0    60.6
 126    4:50   47.0    74    0.3   248      1.5  99999.0    0.00       2    60.5
 126    5:00   47.0    74    0.6   246      2.7  99999.0    0.00       3    60.4
 126    5:10   46.5    75    0.8   242      2.4  99999.0    0.00       4    60.4
 126    5:20   47.4    74    0.7   246      3.2  99999.0    0.00       5    60.3
 126    5:30   48.2    72    0.2   248      1.3  99999.0    0.00       7    60.2
 126    5:40   49.1    72    0.7   242      2.7  99999.0    0.00       8    60.2
 126    5:50   50.7    70    0.5   237      1.2  99999.0    0.00      10    60.1
 126    6:00   52.8    67    0.2   239      1.2  99999.0    0.00      12    60.0
 126    6:10   54.8    64    0.0     0      0.0  99999.0    0.00      13    59.9
 126    6:20   58.3    57    0.0    73      1.5  99999.0    0.00      13    59.8
 126    6:30   60.0    53    1.3    74      2.1  99999.0    0.00      13    59.7
 126    6:40   60.2    55    0.4    77      1.7  99999.0    0.00      12    59.6
 126    6:50   59.4    56    0.7    25      2.0  99999.0    0.00      11    59.6
 126    7:00   58.2    57    1.2    25      2.3  99999.0    0.00      11    59.5
 126    7:10   58.6    56    1.4    41      3.2  99999.0    0.00      11    59.5
 126    7:20   59.6    53    1.1    72      2.5  99999.0    0.00      12    59.4
 126    7:30   61.9    51    0.8    92      5.0  99999.0    0.00      14    59.4
 126    7:40   62.8    48    1.7    85      5.8  99999.0    0.00      16    59.3
 126    7:50   61.8    48    2.8    65      6.6  99999.0    0.00      15    59.3
 126    8:00   62.0    49    1.9    58      4.6  99999.0    0.00      14    59.2
 126    8:10   62.6    47    2.3    71      5.4  99999.0    0.00      14    59.2
 126    8:20   64.0    47    1.8    80      7.9  99999.0    0.00      14    59.1
 126    8:30   64.4    45    2.3    76      5.6  99999.0    0.00      15    59.1
 126    8:40   65.0    44    2.1    71      5.6  99999.0    0.00      15    59.0
 126    8:50   65.2    40    3.0    41      6.1  99999.0    0.00      16    59.0
 126    9:00   65.3    40    2.7    40      7.6  99999.0    0.00      16    58.9
 126    9:10   66.7    37    2.5    50      6.3  99999.0    0.00      16    58.9
 126    9:20   66.6    34    4.2     9      9.3  99999.0    0.00      16    58.9
 126    9:30   66.8    36    4.6    50      9.3  99999.0    0.00      16    58.9
 126    9:40   67.8    34    3.2    29      8.4  99999.0    0.00      16    58.8
 126    9:50   67.9    32    4.2    39      8.2  99999.0    0.00      16    58.8
 126   10:00   68.2    31    3.1    29      7.4  99999.0    0.00      17    58.8
 126   10:10   69.5    31    3.7    59      8.8  99999.0    0.00      17    58.9
 126   10:20   68.6    28    3.5    52      8.2  99999.0    0.00      17    58.8
 126   10:30   69.7    27    4.0    43      7.7  99999.0    0.00      18    58.8
 126   10:40   70.3    25    3.7    71      6.9  99999.0    0.00      18    58.9
 126   10:50   70.5    25    3.2    28      7.8  99999.0    0.00      18    58.9
 126   11:00   70.9    25    3.1   359      8.5  99999.0    0.00      18    59.0
 126   11:10   71.6    23    3.5    45      8.8  99999.0    0.00      19    59.1
 126   11:20   71.3    22    4.6    38     10.6  99999.0    0.00      18    59.3
 126   11:30   71.6    21    5.1    32      9.8  99999.0    0.00      18    59.5
 126   11:40   72.1    21    4.8    34      9.3  99999.0    0.00      18    59.7
 126   11:50   72.5    22    3.7   358      7.5  99999.0    0.00      19    59.9
 126   12:00   72.9    22    3.5    64      8.9  99999.0    0.00      20    60.0
 126   12:10   73.6    21    3.8    44      8.3  99999.0    0.00      20    60.3
 126   12:20   74.0    20    3.4   354      8.2  99999.0    0.00      21    60.6
 126   12:30   74.0    20    3.9   350      9.3  99999.0    0.00      21    60.8
 126   12:40   74.2    19    3.5   334     10.3  99999.0    0.00      19    61.1
 126   12:50   74.8    21    1.5   348      6.0  99999.0    0.00      18    61.3
 126   13:00   74.4    19    4.1    54      7.7  99999.0    0.00      18    61.7
 126   13:10   73.9    20    2.2     4      6.6  99999.0    0.00      20    62.0
 126   13:20   75.3    22    2.1   326      6.5  99999.0    0.00      20    62.2

Return to South Reno, Nevada graphs page.


Western Regional Climate Center,wrcc@dri.edu